Terminal Aerodrome Forecast
Issued by NWS

Current Version | Previous Version | Text Only | Print | Product List | Glossary On
Versions: 1 2 3 4 5 6 7 8 9 10 11 12 13 14 15 16 17 18 19 20 21 22 23 24
000
FTUS41 KBUF 261700
TAFJHW
TAF
KJHW 261739Z 2618/2718 07005KT 2SM -SN OVC020
     FM261900 06005KT 4SM -SN OVC020
     FM262200 05006KT 5SM BR VCSH BKN020
     FM262300 03006KT P6SM BKN012
     FM271300 34004KT P6SM BKN012
      AMD LTD TO CLD VIS AND WIND=

USA.gov is the U.S. government's official web portal to all federal, state and local government web resources and services.